createdAt,value
2022-10-07T00:03:34.706Z,68.85
2022-10-07T00:09:36.486Z,68.25
2022-10-07T00:21:55.182Z,68.27
2022-10-07T00:27:57.056Z,68.83
2022-10-07T00:34:05.585Z,68.69
2022-10-07T00:40:07.786Z,68.57
2022-10-07T00:46:37.098Z,68.37
2022-10-07T00:52:43.369Z,69.30
2022-10-07T00:58:48.142Z,68.91
2022-10-07T01:04:51.772Z,69.18
2022-10-07T01:11:14.200Z,68.60
2022-10-07T01:17:34.698Z,68.92
2022-10-07T01:23:42.693Z,69.61
2022-10-07T01:30:04.647Z,69.43
2022-10-07T01:36:14.662Z,69.66
2022-10-07T01:42:17.723Z,69.53
2022-10-07T01:48:21.195Z,69.58
2022-10-07T01:54:28.588Z,69.99
2022-10-07T02:00:31.418Z,69.93
2022-10-07T02:06:59.412Z,70.50
2022-10-07T02:13:27.027Z,70.13
2022-10-07T02:19:36.229Z,70.21
2022-10-07T02:25:47.294Z,70.84
2022-10-07T02:31:51.721Z,70.55
2022-10-07T02:38:03.189Z,70.71
2022-10-07T02:44:22.256Z,70.78
2022-10-07T02:50:27.646Z,70.43
2022-10-07T03:03:11.357Z,70.56
2022-10-07T03:09:21.905Z,70.25
2022-10-07T03:15:25.853Z,70.76
2022-10-07T03:21:28.203Z,70.90
2022-10-07T03:27:30.221Z,71.57
2022-10-07T03:33:32.135Z,71.07
2022-10-07T03:39:33.936Z,71.82
2022-10-07T03:45:37.543Z,72.27
2022-10-07T03:51:42.402Z,71.73
2022-10-07T03:57:59.679Z,72.13
2022-10-07T04:04:02.297Z,71.95
2022-10-07T04:10:04.399Z,72.65
2022-10-07T04:16:08.457Z,72.35
2022-10-07T04:22:10.349Z,72.71
2022-10-07T04:28:18.656Z,72.55
2022-10-07T04:34:23.608Z,72.60
2022-10-07T04:46:51.194Z,72.08
2022-10-07T04:52:53.976Z,71.80
2022-10-07T04:58:56.475Z,72.63
2022-10-07T05:11:23.543Z,71.98
2022-10-07T05:17:26.138Z,72.19
2022-10-07T05:49:08.781Z,71.05
2022-10-07T06:01:41.704Z,71.84
2022-10-07T06:14:04.140Z,71.63
2022-10-07T06:39:59.356Z,71.82
2022-10-07T07:18:30.381Z,68.67
2022-10-07T12:16:22.445Z,49.69
2022-10-07T13:15:59.623Z,53.34
2022-10-07T14:12:52.266Z,52.77
2022-10-07T14:19:07.026Z,54.13
2022-10-07T14:25:22.267Z,53.91
2022-10-07T14:31:45.824Z,56.22
2022-10-07T14:37:48.806Z,55.90
2022-10-07T14:43:52.112Z,55.96
2022-10-07T14:50:00.884Z,55.65
2022-10-07T14:56:02.895Z,56.56
2022-10-07T15:08:21.705Z,56.75
2022-10-07T15:14:23.868Z,56.41
2022-10-07T15:20:26.576Z,57.94
2022-10-07T15:26:28.943Z,56.73
2022-10-07T15:32:30.893Z,56.93
2022-10-07T15:38:32.684Z,57.36
2022-10-07T15:44:34.579Z,57.38
2022-10-07T15:50:36.574Z,58.70
2022-10-07T15:56:39.528Z,58.20
2022-10-07T16:02:44.008Z,59.36
2022-10-07T16:08:46.098Z,58.50
2022-10-07T16:21:09.933Z,60.57
2022-10-07T16:27:11.748Z,59.19
2022-10-07T16:33:13.501Z,60.91
2022-10-07T16:39:18.978Z,60.06
2022-10-07T16:45:21.266Z,59.78
2022-10-07T16:51:33.358Z,58.88
2022-10-07T16:57:37.407Z,58.92
2022-10-07T17:03:45.371Z,60.41
2022-10-07T17:09:47.180Z,59.88
2022-10-07T17:15:52.698Z,58.48
2022-10-07T17:21:56.003Z,59.58
2022-10-07T17:27:57.865Z,59.48
2022-10-07T17:34:00.092Z,59.92
2022-10-07T17:40:01.891Z,59.75
2022-10-07T17:46:05.252Z,59.58
2022-10-07T17:52:09.091Z,61.21
2022-10-07T17:58:10.806Z,61.39
2022-10-07T18:04:17.116Z,61.75
2022-10-07T18:10:21.823Z,60.29
2022-10-07T18:16:23.917Z,63.75
2022-10-07T18:22:25.852Z,64.82
2022-10-07T18:28:27.668Z,66.64
2022-10-07T18:34:29.475Z,65.50
2022-10-07T18:40:31.329Z,63.83
2022-10-07T18:46:33.309Z,62.86
2022-10-07T18:52:35.069Z,62.56
2022-10-07T18:58:39.156Z,62.88
2022-10-07T19:04:40.968Z,63.81
2022-10-07T19:10:43.184Z,63.68
2022-10-07T19:16:49.249Z,62.67
2022-10-07T19:22:51.284Z,69.15
2022-10-07T19:28:54.553Z,65.16
2022-10-07T19:34:56.330Z,63.42
2022-10-07T19:40:58.059Z,65.32
2022-10-07T19:47:01.489Z,66.57
2022-10-07T19:53:05.139Z,64.44
2022-10-07T19:59:09.214Z,68.99
2022-10-07T20:05:10.908Z,68.82
2022-10-07T20:11:13.363Z,66.03
2022-10-07T20:17:15.158Z,66.52
2022-10-07T20:23:16.952Z,66.05
2022-10-07T20:29:24.087Z,66.26
2022-10-07T20:35:31.741Z,70.03
2022-10-07T20:41:53.861Z,68.79
2022-10-07T20:47:59.609Z,72.04
2022-10-07T20:54:03.550Z,67.99
2022-10-07T21:00:09.452Z,68.83
2022-10-07T21:06:11.220Z,67.87
2022-10-07T21:12:16.014Z,68.51
2022-10-07T21:18:19.197Z,67.36
2022-10-07T21:24:20.879Z,66.04
2022-10-07T21:30:22.694Z,71.27
2022-10-07T21:36:24.557Z,68.08
2022-10-07T21:42:26.339Z,76.77
2022-10-07T21:48:31.612Z,70.50
2022-10-07T21:54:33.349Z,69.38
2022-10-07T22:00:36.172Z,76.65
2022-10-07T22:06:56.331Z,77.09
2022-10-07T22:12:58.068Z,68.92
2022-10-07T22:18:59.840Z,69.11
2022-10-07T22:25:01.547Z,71.38
2022-10-07T22:31:05.689Z,79.07
2022-10-07T22:37:07.477Z,70.63
2022-10-07T22:43:09.648Z,69.31
2022-10-07T22:49:12.037Z,71.35
2022-10-07T22:55:13.806Z,70.35
2022-10-07T23:01:16.796Z,72.20
2022-10-07T23:07:18.845Z,71.29
2022-10-07T23:13:20.549Z,70.51
2022-10-07T23:19:22.305Z,72.29
2022-10-07T23:25:25.159Z,72.16
2022-10-07T23:31:28.929Z,70.84
2022-10-07T23:37:30.697Z,71.16
2022-10-07T23:43:33.689Z,72.58
2022-10-07T23:49:35.444Z,71.26
2022-10-07T23:55:37.203Z,71.22
